»·PEaware :: UAL806 KSFO-KSNA

UAL806 :: KSFO-KSNA

FLIGHT INFORMATION

Flight Status: Arrived
Operator:
United Airlines
More flights by this operator :: More flights under this callsign
Pilot: Jackson P. (22895)
Aircraft: BOEING 737-800
(B738)
More flights by this aircraft type
Origin: KSFO San Francisco Intl
United States
Destination: KSNA John Wayne-Orange Co
United States
More flights between these airports :: More routes between these airports
Route: +OFFSH1 MCKEY TILLT TILLT2
File this flight plan on PilotEdge
Remarks: PBN / A1B1C1D1L1O1S1 NAV / RNVD1E2A1 DOF / 190120 REG / N738UA EET / KZLA0029 RVR / 200 PER / C
Altitude:
(Current/Filed)
370ft
Speed:
(Current/Filed)
450kts
Departed: 19-Jan-19 06:56 PM
Arrived: 19-Jan-19 08:00 PM
Distance/Time
Traveled:
323nm/1:04
Distance/Time
To Go:
Arrived

Flight Plot

Page will automatically refresh every two minutes.

Flight plan parsing failed; only flown route is shown


Map Options




Map Legend


Flown Route
Filed Route
Departure Airport
Arrival Airport
Navaid (VOR, NDB)
Fix

Horizontal Profiles

Position Reports

Time Latitude Longitude Heading Altitude Ground
Speed
19-Jan-19 18:15 37.619531 -122.384840 115 20ft 0kts
19-Jan-19 18:16 37.619531 -122.384840 115 20ft 0kts
19-Jan-19 18:17 37.619531 -122.384840 115 21ft 0kts
19-Jan-19 18:18 37.619531 -122.384840 115 20ft 0kts
19-Jan-19 18:21 37.619531 -122.384840 115 20ft 0kts
19-Jan-19 18:22 37.619531 -122.384840 115 20ft 0kts
19-Jan-19 18:22 37.619531 -122.384840 115 20ft 0kts
19-Jan-19 18:22 37.619531 -122.384840 115 20ft 0kts
19-Jan-19 18:22 37.619531 -122.384840 115 20ft 0kts
19-Jan-19 18:24 37.619531 -122.384840 115 20ft 0kts
19-Jan-19 18:25 37.619531 -122.384840 115 20ft 0kts
19-Jan-19 18:26 37.619531 -122.384840 115 20ft 0kts
19-Jan-19 18:26 37.619531 -122.384840 115 20ft 0kts
19-Jan-19 18:27 37.619531 -122.384840 115 20ft 0kts
19-Jan-19 18:28 37.619531 -122.384840 115 20ft 0kts
19-Jan-19 18:30 37.619531 -122.384840 115 20ft 0kts
19-Jan-19 18:30 37.619531 -122.384840 115 20ft 0kts
19-Jan-19 18:32 37.619531 -122.384840 115 20ft 0kts
19-Jan-19 18:32 37.619531 -122.384840 115 20ft 0kts
19-Jan-19 18:33 37.619531 -122.384840 115 20ft 0kts
19-Jan-19 18:34 37.619531 -122.384840 115 20ft 0kts
19-Jan-19 18:35 37.619531 -122.384840 115 20ft 0kts
19-Jan-19 18:36 37.619531 -122.384840 115 20ft 0kts
19-Jan-19 18:37 37.619531 -122.384840 115 20ft 0kts
19-Jan-19 18:38 37.619531 -122.384840 115 20ft 0kts
19-Jan-19 18:39 37.619531 -122.384840 115 20ft 0kts
19-Jan-19 18:40 37.619531 -122.384840 115 20ft 0kts
19-Jan-19 18:41 37.619531 -122.384840 115 20ft 0kts
19-Jan-19 18:42 37.619531 -122.384840 115 20ft 0kts
19-Jan-19 18:43 37.619531 -122.384840 115 20ft 0kts
19-Jan-19 18:44 37.619531 -122.384840 115 20ft 0kts
19-Jan-19 18:45 37.619531 -122.384840 115 20ft 0kts
19-Jan-19 18:46 37.619657 -122.385320 91 20ft 2kts
19-Jan-19 18:47 37.619467 -122.385715 27 20ft 0kts
19-Jan-19 18:48 37.619467 -122.385715 27 20ft 0kts
19-Jan-19 18:49 37.619509 -122.385687 27 20ft 1kts
19-Jan-19 18:50 37.620501 -122.384029 117 20ft 7kts
19-Jan-19 18:51 37.617858 -122.379498 170 20ft 10kts
19-Jan-19 18:52 37.614689 -122.380905 208 20ft 12kts
19-Jan-19 18:53 37.610400 -122.383774 212 20ft 13kts
19-Jan-19 18:54 37.609304 -122.381990 27 20ft 6kts
19-Jan-19 18:55 37.628902 -122.369408 26 578ft 159kts
19-Jan-19 18:56 37.635279 -122.365249 24 1196ft 156kts
19-Jan-19 18:57 37.699875 -122.374370 314 3500ft 238kts
19-Jan-19 18:58 37.700423 -122.375098 312 3534ft 239kts
19-Jan-19 18:59 37.700853 -122.375694 311 3561ft 239kts
19-Jan-19 19:01 37.476034 -122.710312 173 16646ft 366kts
19-Jan-19 19:02 37.375017 -122.681310 173 19091ft 379kts
19-Jan-19 19:03 37.277010 -122.621616 151 21197ft 411kts
19-Jan-19 19:04 37.181364 -122.537443 151 23032ft 425kts
19-Jan-19 19:05 37.082825 -122.451101 152 24692ft 438kts
19-Jan-19 19:06 36.982080 -122.362251 151 26184ft 450kts
19-Jan-19 19:07 36.924537 -122.310896 152 26946ft 456kts
19-Jan-19 19:08 36.920054 -122.306922 152 27004ft 457kts
19-Jan-19 19:09 36.915625 -122.303002 152 27051ft 457kts
19-Jan-19 19:10 36.575724 -122.006240 154 32692ft 446kts
19-Jan-19 19:11 36.471423 -121.916071 153 33633ft 457kts
19-Jan-19 19:12 36.365059 -121.824420 154 34507ft 466kts
19-Jan-19 19:13 36.256967 -121.731543 154 35300ft 474kts
19-Jan-19 19:14 36.148001 -121.638131 154 36264ft 476kts
19-Jan-19 19:15 36.038972 -121.544039 154 37131ft 478kts
19-Jan-19 19:16 35.928814 -121.448817 153 37307ft 486kts
19-Jan-19 19:17 35.818561 -121.353721 153 37324ft 485kts
19-Jan-19 19:18 35.706264 -121.262428 158 37326ft 480kts
19-Jan-19 19:19 35.592567 -121.174614 154 37301ft 486kts
19-Jan-19 19:20 35.484879 -121.072237 136 37288ft 505kts
19-Jan-19 19:21 35.394331 -120.940868 141 37283ft 501kts
19-Jan-19 19:22 35.291944 -120.826577 145 37269ft 497kts
19-Jan-19 19:23 35.189957 -120.716346 145 37261ft 497kts
19-Jan-19 19:24 35.089196 -120.608421 145 37259ft 498kts
19-Jan-19 19:25 34.997711 -120.521291 154 37254ft 490kts
19-Jan-19 19:26 34.890822 -120.436054 154 37250ft 490kts
19-Jan-19 19:27 34.813615 -120.373915 153 37246ft 491kts
19-Jan-19 19:28 34.655680 -120.247068 153 37242ft 492kts
19-Jan-19 19:29 34.542489 -120.156769 153 35046ft 490kts
19-Jan-19 19:30 34.431320 -120.068302 152 32596ft 483kts
19-Jan-19 19:31 34.324009 -119.982694 152 30672ft 465kts
19-Jan-19 19:32 34.266957 -119.937320 152 29667ft 455kts
19-Jan-19 19:33 34.116761 -119.818705 152 27028ft 432kts
19-Jan-19 19:34 34.035065 -119.708154 124 25195ft 435kts
19-Jan-19 19:35 33.974388 -119.584769 124 23445ft 421kts
19-Jan-19 19:36 33.914711 -119.466109 124 21709ft 409kts
19-Jan-19 19:37 33.857345 -119.350517 124 20118ft 394kts
19-Jan-19 19:38 33.802241 -119.239165 124 18461ft 384kts
19-Jan-19 19:39 33.749751 -119.133449 124 17009ft 369kts
19-Jan-19 19:40 33.697893 -119.027852 123 15598ft 361kts
19-Jan-19 19:41 33.646797 -118.925069 123 14221ft 354kts
19-Jan-19 19:42 33.596928 -118.825298 123 12881ft 344kts
19-Jan-19 19:43 33.562062 -118.722349 102 12073ft 314kts
19-Jan-19 19:44 33.547166 -118.623476 102 10833ft 292kts
19-Jan-19 19:45 33.531981 -118.529276 101 9344ft 285kts
19-Jan-19 19:46 33.520409 -118.436121 91 8241ft 279kts
19-Jan-19 19:47 33.518894 -118.344646 86 7181ft 271kts
19-Jan-19 19:48 33.541270 -118.259133 68 6083ft 266kts
19-Jan-19 19:49 33.567376 -118.179839 64 5078ft 261kts
19-Jan-19 19:50 33.602362 -118.114626 55 5028ft 241kts
19-Jan-19 19:51 33.638335 -118.050913 56 5007ft 227kts
19-Jan-19 19:52 33.673318 -118.005472 33 4942ft 229kts
19-Jan-19 19:53 33.732983 -117.959031 32 4014ft 200kts
19-Jan-19 19:54 33.775864 -117.922238 50 2875ft 187kts
19-Jan-19 19:55 33.788685 -117.867729 104 2018ft 188kts
19-Jan-19 19:56 33.754131 -117.813501 141 1370ft 190kts
19-Jan-19 19:57 33.717978 -117.825620 234 535ft 151kts
19-Jan-19 19:58 33.690212 -117.859438 211 240ft 139kts
19-Jan-19 19:59 33.668414 -117.873346 191 64ft 21kts
19-Jan-19 20:00 33.668662 -117.871410 39 64ft 13kts
19-Jan-19 20:01 33.671206 -117.868798 37 64ft 13kts
19-Jan-19 20:02 33.673635 -117.866768 26 64ft 11kts
19-Jan-19 20:03 33.677635 -117.864245 27 64ft 18kts
19-Jan-19 20:04 33.679419 -117.862623 114 64ft 1kts
19-Jan-19 20:05 33.679312 -117.862354 116 64ft 0kts
19-Jan-19 20:06 33.679312 -117.862354 116 64ft 0kts
19-Jan-19 20:07 33.679312 -117.862354 116 64ft 0kts
19-Jan-19 20:08 33.679312 -117.862354 116 64ft 0kts
19-Jan-19 20:09 33.679312 -117.862354 116 64ft 0kts
19-Jan-19 20:10 33.679312 -117.862354 116 64ft 0kts
19-Jan-19 20:11 33.679312 -117.862354 116 64ft 0kts
19-Jan-19 20:13 33.679312 -117.862354 116 64ft 0kts
19-Jan-19 20:14 33.679312 -117.862354 116 64ft 0kts

Navigation Log

Ident Type
Flight plan parsing failed, navigation log unavailable